createdAt,value
2023-02-23T00:04:29.620Z,28.75
2023-02-23T00:12:37.534Z,26.70
2023-02-23T00:20:46.262Z,26.92
2023-02-23T00:28:55.990Z,28.00
2023-02-23T00:37:01.341Z,27.25
2023-02-23T00:45:11.508Z,24.95
2023-02-23T00:53:16.796Z,27.67
2023-02-23T01:01:25.189Z,42.67
2023-02-23T01:09:30.919Z,39.63
2023-02-23T01:17:38.987Z,21.98
2023-02-23T01:25:45.656Z,19.20
2023-02-23T01:34:00.388Z,20.40
2023-02-23T01:42:13.910Z,23.63
2023-02-23T01:50:22.759Z,26.80
2023-02-23T01:58:30.630Z,21.75
2023-02-23T02:06:41.596Z,25.02
2023-02-23T02:14:47.008Z,22.50
2023-02-23T02:23:28.000Z,25.75
2023-02-23T02:32:11.616Z,23.55
2023-02-23T02:40:29.393Z,26.65
2023-02-23T02:48:44.964Z,21.48
2023-02-23T02:56:57.859Z,26.35
2023-02-23T03:05:17.093Z,24.08
2023-02-23T03:13:51.987Z,20.67
2023-02-23T03:22:20.037Z,26.55
2023-02-23T03:30:45.671Z,21.50
2023-02-23T03:39:09.047Z,26.00
2023-02-23T03:47:32.481Z,21.60
2023-02-23T04:04:14.714Z,23.75
2023-02-23T04:12:39.382Z,20.90
2023-02-23T04:20:47.432Z,21.77
2023-02-23T04:28:52.779Z,20.17
2023-02-23T04:37:00.727Z,26.35
2023-02-23T04:45:06.074Z,27.25
2023-02-23T04:53:14.001Z,25.73
2023-02-23T05:01:21.213Z,37.03
2023-02-23T05:09:29.798Z,29.75
2023-02-23T05:17:35.135Z,27.00
2023-02-23T05:25:44.057Z,41.75
2023-02-23T05:33:49.528Z,35.00
2023-02-23T05:41:57.470Z,39.60
2023-02-23T05:50:02.892Z,22.17
2023-02-23T05:58:10.847Z,18.83
2023-02-23T06:06:16.233Z,17.90
2023-02-23T06:14:24.484Z,19.33
2023-02-23T06:22:29.892Z,20.48
2023-02-23T06:30:38.214Z,44.92
2023-02-23T06:38:44.946Z,39.22
2023-02-23T06:46:53.029Z,35.35
2023-02-23T06:54:58.513Z,35.90
2023-02-23T07:03:07.048Z,27.73
2023-02-23T07:11:14.096Z,21.55
2023-02-23T07:19:22.140Z,18.27
2023-02-23T07:27:27.783Z,15.07
2023-02-23T07:35:35.711Z,23.30
2023-02-23T07:43:41.436Z,18.58
2023-02-23T07:51:49.537Z,18.52
2023-02-23T07:59:55.326Z,21.60
2023-02-23T08:08:03.667Z,22.77
2023-02-23T08:16:09.653Z,22.70
2023-02-23T08:24:17.716Z,24.33
2023-02-23T08:32:23.131Z,23.85
2023-02-23T08:40:31.268Z,21.08
2023-02-23T08:48:39.196Z,24.65
2023-02-23T08:56:47.902Z,20.92
2023-02-23T09:04:54.219Z,19.42
2023-02-23T09:13:03.026Z,18.35
2023-02-23T09:21:13.609Z,18.52
2023-02-23T09:29:21.728Z,25.50
2023-02-23T09:37:27.552Z,17.30
2023-02-23T09:45:43.800Z,17.73
2023-02-23T09:53:53.703Z,16.35
2023-02-23T10:02:12.290Z,17.60
2023-02-23T10:10:26.017Z,16.65
2023-02-23T10:18:46.843Z,12.07
2023-02-23T10:26:56.222Z,18.23
2023-02-23T10:35:05.139Z,17.05
2023-02-23T10:43:10.628Z,13.23
2023-02-23T10:51:24.096Z,13.45
2023-02-23T10:59:29.843Z,13.70
2023-02-23T11:07:39.546Z,13.40
2023-02-23T11:15:50.664Z,13.93
2023-02-23T11:24:01.784Z,14.73
2023-02-23T11:32:13.717Z,14.07
2023-02-23T11:40:26.989Z,13.23
2023-02-23T11:48:37.824Z,10.82
2023-02-23T11:56:52.446Z,11.20
2023-02-23T12:05:08.833Z,16.20
2023-02-23T12:13:28.793Z,11.07
2023-02-23T12:21:41.209Z,12.43
2023-02-23T12:30:09.475Z,10.95
2023-02-23T12:38:27.833Z,15.75
2023-02-23T12:46:47.582Z,10.60
2023-02-23T12:54:53.781Z,16.08
2023-02-23T13:03:22.944Z,12.85
2023-02-23T13:11:40.578Z,12.25
2023-02-23T13:19:55.621Z,10.93
2023-02-23T13:28:03.555Z,9.73
2023-02-23T13:36:13.112Z,11.07
2023-02-23T13:44:25.271Z,12.57
2023-02-23T13:52:41.095Z,17.10
2023-02-23T14:00:47.421Z,12.38
2023-02-23T14:09:02.485Z,13.32
2023-02-23T14:17:50.796Z,11.35
2023-02-23T14:26:31.589Z,12.80
2023-02-23T14:34:48.617Z,16.08
2023-02-23T14:43:00.749Z,9.88
2023-02-23T14:51:19.909Z,11.65
2023-02-23T14:59:30.605Z,11.77
2023-02-23T15:07:39.436Z,9.93
2023-02-23T15:15:49.908Z,11.93
2023-02-23T15:24:01.357Z,12.90
2023-02-23T15:32:23.762Z,15.27
2023-02-23T15:40:30.441Z,18.38
2023-02-23T15:48:46.900Z,13.77
2023-02-23T15:56:54.812Z,11.82
2023-02-23T16:05:24.000Z,11.15
2023-02-23T16:13:31.705Z,10.52
2023-02-23T16:21:41.590Z,8.15
2023-02-23T16:29:47.003Z,16.45
2023-02-23T16:38:05.898Z,9.38
2023-02-23T16:46:12.700Z,17.17
2023-02-23T16:54:20.676Z,11.55
2023-02-23T17:02:26.168Z,12.05
2023-02-23T17:10:36.606Z,9.90
2023-02-23T17:18:45.125Z,13.68
2023-02-23T17:26:53.079Z,10.68
2023-02-23T17:34:58.728Z,11.20
2023-02-23T17:43:10.553Z,9.15
2023-02-23T17:51:17.682Z,13.65
2023-02-23T17:59:25.817Z,12.40
2023-02-23T18:07:32.268Z,11.40
2023-02-23T18:15:40.303Z,9.73
2023-02-23T18:23:46.026Z,11.93
2023-02-23T18:31:54.205Z,8.43
2023-02-23T18:40:00.124Z,12.40
2023-02-23T18:48:12.591Z,8.02
2023-02-23T18:56:23.268Z,11.70
2023-02-23T19:04:31.468Z,14.70
2023-02-23T19:12:39.805Z,11.70
2023-02-23T19:20:52.529Z,11.05
2023-02-23T19:28:58.399Z,11.70
2023-02-23T19:37:08.783Z,11.15
2023-02-23T19:45:14.364Z,9.90
2023-02-23T19:53:23.030Z,11.10
2023-02-23T20:01:30.103Z,10.32
2023-02-23T20:09:38.294Z,10.18
2023-02-23T20:17:43.827Z,10.52
2023-02-23T20:25:51.835Z,15.05
2023-02-23T20:33:58.973Z,9.93
2023-02-23T20:42:07.407Z,9.80
2023-02-23T20:50:13.601Z,15.25
2023-02-23T20:58:25.178Z,8.35
2023-02-23T21:06:32.693Z,8.48
2023-02-23T21:14:40.746Z,8.40
2023-02-23T21:22:49.357Z,8.05
2023-02-23T21:30:57.437Z,7.03
2023-02-23T21:39:03.159Z,7.35
2023-02-23T21:47:11.315Z,10.38
2023-02-23T21:55:22.241Z,5.68
2023-02-23T22:03:31.447Z,7.85
2023-02-23T22:11:37.358Z,10.50
2023-02-23T22:19:45.568Z,8.07
2023-02-23T22:27:51.394Z,8.43
2023-02-23T22:35:59.413Z,9.10
2023-02-23T22:44:05.287Z,6.80
2023-02-23T22:52:13.223Z,6.95
2023-02-23T23:00:21.183Z,7.78
2023-02-23T23:08:29.805Z,7.82
2023-02-23T23:16:38.126Z,7.38
2023-02-23T23:24:49.193Z,12.02
2023-02-23T23:32:54.744Z,8.32
2023-02-23T23:41:14.469Z,5.72
2023-02-23T23:49:21.665Z,6.95
2023-02-23T23:57:29.647Z,6.65
